sensor_id;sensor_type;location;lat;lon;timestamp;P1;durP1;ratioP1;P2;durP2;ratioP2
47381;SDS011;33128;51.580;5.170;2022-07-29T09:10:08;9.85;;;9.15;;
47381;SDS011;33128;51.580;5.170;2022-07-29T09:12:35;9.07;;;8.50;;
47381;SDS011;33128;51.580;5.170;2022-07-29T09:15:00;10.48;;;9.77;;
47381;SDS011;33128;51.580;5.170;2022-07-29T09:17:42;9.00;;;8.70;;
47381;SDS011;33128;51.580;5.170;2022-07-29T09:20:10;9.20;;;8.60;;
47381;SDS011;33128;51.580;5.170;2022-07-29T09:22:36;8.93;;;8.60;;
47381;SDS011;33128;51.580;5.170;2022-07-29T09:25:05;9.52;;;8.98;;
47381;SDS011;33128;51.580;5.170;2022-07-29T09:27:31;8.95;;;8.57;;
47381;SDS011;33128;51.580;5.170;2022-07-29T09:29:59;9.25;;;8.85;;
47381;SDS011;33128;51.580;5.170;2022-07-29T09:32:26;8.98;;;8.52;;
47381;SDS011;33128;51.580;5.170;2022-07-29T09:37:43;9.13;;;8.73;;
47381;SDS011;33128;51.580;5.170;2022-07-29T09:40:11;9.20;;;8.80;;
47381;SDS011;33128;51.580;5.170;2022-07-29T09:42:41;9.10;;;8.55;;
47381;SDS011;33128;51.580;5.170;2022-07-29T09:45:07;9.07;;;8.68;;
47381;SDS011;33128;51.580;5.170;2022-07-29T09:47:46;8.65;;;8.15;;
47381;SDS011;33128;51.580;5.170;2022-07-29T09:50:14;8.32;;;8.00;;
47381;SDS011;33128;51.580;5.170;2022-07-29T09:52:50;8.80;;;8.30;;
47381;SDS011;33128;51.580;5.170;2022-07-29T09:55:22;9.63;;;9.23;;
47381;SDS011;33128;51.580;5.170;2022-07-29T09:57:51;9.27;;;8.80;;
47381;SDS011;33128;51.580;5.170;2022-07-29T10:00:19;8.30;;;8.00;;
47381;SDS011;33128;51.580;5.170;2022-07-29T10:02:48;8.00;;;7.70;;
47381;SDS011;33128;51.580;5.170;2022-07-29T10:05:26;8.27;;;7.88;;
47381;SDS011;33128;51.580;5.170;2022-07-29T10:07:55;8.52;;;7.95;;
47381;SDS011;33128;51.580;5.170;2022-07-29T10:10:31;8.30;;;7.88;;
47381;SDS011;33128;51.580;5.170;2022-07-29T10:13:00;8.15;;;7.80;;
47381;SDS011;33128;51.580;5.170;2022-07-29T10:15:28;7.80;;;7.50;;
47381;SDS011;33128;51.580;5.170;2022-07-29T10:17:59;8.20;;;7.80;;
47381;SDS011;33128;51.580;5.170;2022-07-29T10:20:25;8.45;;;8.05;;
47381;SDS011;33128;51.580;5.170;2022-07-29T10:22:53;8.20;;;7.90;;
47381;SDS011;33128;51.580;5.170;2022-07-29T10:25:19;8.25;;;7.88;;
47381;SDS011;33128;51.580;5.170;2022-07-29T10:27:46;8.50;;;8.10;;
47381;SDS011;33128;51.580;5.170;2022-07-29T10:30:12;8.65;;;8.30;;
47381;SDS011;33128;51.580;5.170;2022-07-29T10:44:00;8.70;;;8.32;;
47381;SDS011;33128;51.580;5.170;2022-07-29T10:46:47;8.45;;;8.00;;
47381;SDS011;33128;51.580;5.170;2022-07-29T11:05:14;8.18;;;7.88;;
47381;SDS011;33128;51.580;5.170;2022-07-29T11:10:52;8.70;;;8.30;;
47381;SDS011;33128;51.580;5.170;2022-07-29T11:16:06;8.60;;;8.20;;
47381;SDS011;33128;51.580;5.170;2022-07-29T11:18:32;9.20;;;8.70;;
47381;SDS011;33128;51.580;5.170;2022-07-29T11:20:58;8.70;;;8.30;;
47381;SDS011;33128;51.580;5.170;2022-07-29T11:23:28;8.73;;;8.20;;
47381;SDS011;33128;51.580;5.170;2022-07-29T11:28:35;8.45;;;8.15;;
47381;SDS011;33128;51.580;5.170;2022-07-29T11:31:07;9.07;;;8.52;;
47381;SDS011;33128;51.580;5.170;2022-07-29T11:33:34;8.25;;;7.90;;
47381;SDS011;33128;51.580;5.170;2022-07-29T11:36:12;8.57;;;8.18;;
47381;SDS011;33128;51.580;5.170;2022-07-29T11:38:39;9.27;;;8.90;;
47381;SDS011;33128;51.580;5.170;2022-07-29T11:43:46;8.63;;;8.23;;
47381;SDS011;33128;51.580;5.170;2022-07-29T11:46:16;9.00;;;8.60;;
47381;SDS011;33128;51.580;5.170;2022-07-29T11:49:00;9.73;;;9.32;;
47381;SDS011;33128;51.580;5.170;2022-07-29T11:51:27;8.77;;;8.38;;
47381;SDS011;33128;51.580;5.170;2022-07-29T11:53:53;8.75;;;8.35;;
47381;SDS011;33128;51.580;5.170;2022-07-29T11:56:20;8.27;;;7.97;;
47381;SDS011;33128;51.580;5.170;2022-07-29T11:58:46;8.40;;;8.00;;
47381;SDS011;33128;51.580;5.170;2022-07-29T12:01:13;8.40;;;8.10;;
47381;SDS011;33128;51.580;5.170;2022-07-29T12:03:41;8.70;;;8.15;;
47381;SDS011;33128;51.580;5.170;2022-07-29T12:06:13;7.90;;;7.60;;
47381;SDS011;33128;51.580;5.170;2022-07-29T12:08:40;8.60;;;8.20;;
47381;SDS011;33128;51.580;5.170;2022-07-29T12:11:16;8.80;;;8.40;;
47381;SDS011;33128;51.580;5.170;2022-07-29T12:13:45;7.72;;;7.43;;
47381;SDS011;33128;51.580;5.170;2022-07-29T12:16:10;7.80;;;7.50;;
47381;SDS011;33128;51.580;5.170;2022-07-29T12:18:36;7.30;;;7.00;;
47381;SDS011;33128;51.580;5.170;2022-07-29T12:21:02;8.27;;;7.90;;
47381;SDS011;33128;51.580;5.170;2022-07-29T12:23:33;7.95;;;7.45;;
47381;SDS011;33128;51.580;5.170;2022-07-29T12:25:59;7.20;;;6.95;;
47381;SDS011;33128;51.580;5.170;2022-07-29T12:28:25;7.45;;;7.15;;
47381;SDS011;33128;51.580;5.170;2022-07-29T12:30:54;7.43;;;7.05;;
47381;SDS011;33128;51.580;5.170;2022-07-29T12:33:24;7.25;;;6.95;;
47381;SDS011;33128;51.580;5.170;2022-07-29T12:36:02;7.10;;;6.80;;
47381;SDS011;33128;51.580;5.170;2022-07-29T12:38:28;7.18;;;6.72;;
47381;SDS011;33128;51.580;5.170;2022-07-29T12:40:57;7.20;;;6.90;;
47381;SDS011;33128;51.580;5.170;2022-07-29T12:43:24;6.53;;;6.32;;
47381;SDS011;33128;51.580;5.170;2022-07-29T12:45:50;7.10;;;6.70;;
47381;SDS011;33128;51.580;5.170;2022-07-29T12:48:32;6.55;;;6.25;;
47381;SDS011;33128;51.580;5.170;2022-07-29T12:50:59;6.63;;;6.32;;
47381;SDS011;33128;51.580;5.170;2022-07-29T12:53:26;7.00;;;6.70;;
47381;SDS011;33128;51.580;5.170;2022-07-29T12:55:55;6.50;;;6.20;;
47381;SDS011;33128;51.580;5.170;2022-07-29T12:58:38;6.88;;;6.40;;
47381;SDS011;33128;51.580;5.170;2022-07-29T13:01:06;6.78;;;6.47;;
47381;SDS011;33128;51.580;5.170;2022-07-29T13:11:39;6.05;;;5.75;;
47381;SDS011;33128;51.580;5.170;2022-07-29T13:14:06;6.65;;;6.35;;
47381;SDS011;33128;51.580;5.170;2022-07-29T13:16:33;6.45;;;6.25;;
47381;SDS011;33128;51.580;5.170;2022-07-29T13:19:11;6.25;;;5.95;;
47381;SDS011;33128;51.580;5.170;2022-07-29T13:21:38;6.22;;;6.00;;
47381;SDS011;33128;51.580;5.170;2022-07-29T13:24:07;6.70;;;6.30;;
47381;SDS011;33128;51.580;5.170;2022-07-29T13:26:33;6.50;;;6.30;;
47381;SDS011;33128;51.580;5.170;2022-07-29T13:28:59;6.60;;;6.40;;
47381;SDS011;33128;51.580;5.170;2022-07-29T13:31:25;7.25;;;6.88;;
47381;SDS011;33128;51.580;5.170;2022-07-29T13:33:50;6.68;;;6.35;;
47381;SDS011;33128;51.580;5.170;2022-07-29T13:36:16;6.55;;;6.35;;
47381;SDS011;33128;51.580;5.170;2022-07-29T13:38:42;6.15;;;5.95;;
47381;SDS011;33128;51.580;5.170;2022-07-29T13:41:07;5.75;;;5.55;;
47381;SDS011;33128;51.580;5.170;2022-07-29T13:43:34;6.68;;;6.35;;
47381;SDS011;33128;51.580;5.170;2022-07-29T13:45:59;6.25;;;6.03;;
47381;SDS011;33128;51.580;5.170;2022-07-29T13:48:25;6.53;;;6.22;;
47381;SDS011;33128;51.580;5.170;2022-07-29T13:50:50;6.22;;;5.93;;
47381;SDS011;33128;51.580;5.170;2022-07-29T13:53:16;6.70;;;6.30;;
47381;SDS011;33128;51.580;5.170;2022-07-29T13:55:42;6.53;;;6.22;;
47381;SDS011;33128;51.580;5.170;2022-07-29T13:58:07;6.03;;;5.80;;
47381;SDS011;33128;51.580;5.170;2022-07-29T14:00:33;6.10;;;5.80;;
47381;SDS011;33128;51.580;5.170;2022-07-29T14:02:59;5.80;;;5.60;;
47381;SDS011;33128;51.580;5.170;2022-07-29T14:05:24;5.63;;;5.43;;
47381;SDS011;33128;51.580;5.170;2022-07-29T14:07:50;6.28;;;5.88;;
47381;SDS011;33128;51.580;5.170;2022-07-29T14:10:15;5.63;;;5.43;;
47381;SDS011;33128;51.580;5.170;2022-07-29T14:12:44;5.70;;;5.50;;
47381;SDS011;33128;51.580;5.170;2022-07-29T14:15:10;6.22;;;5.93;;
47381;SDS011;33128;51.580;5.170;2022-07-29T14:17:35;6.70;;;6.40;;
47381;SDS011;33128;51.580;5.170;2022-07-29T14:20:01;6.50;;;6.20;;
47381;SDS011;33128;51.580;5.170;2022-07-29T14:22:29;6.95;;;6.65;;
47381;SDS011;33128;51.580;5.170;2022-07-29T14:24:55;7.22;;;6.60;;
47381;SDS011;33128;51.580;5.170;2022-07-29T14:27:20;6.60;;;6.30;;
47381;SDS011;33128;51.580;5.170;2022-07-29T14:29:46;6.07;;;5.88;;
47381;SDS011;33128;51.580;5.170;2022-07-29T14:32:12;6.60;;;6.30;;
47381;SDS011;33128;51.580;5.170;2022-07-29T14:34:39;6.75;;;6.45;;
47381;SDS011;33128;51.580;5.170;2022-07-29T14:37:05;6.55;;;6.05;;
47381;SDS011;33128;51.580;5.170;2022-07-29T14:39:34;6.32;;;5.80;;
47381;SDS011;33128;51.580;5.170;2022-07-29T14:42:01;11.07;;;6.22;;
47381;SDS011;33128;51.580;5.170;2022-07-29T14:44:26;7.72;;;6.20;;
47381;SDS011;33128;51.580;5.170;2022-07-29T14:46:56;11.55;;;6.05;;
47381;SDS011;33128;51.580;5.170;2022-07-29T14:49:25;9.05;;;6.18;;
47381;SDS011;33128;51.580;5.170;2022-07-29T14:51:51;23.38;;;8.02;;
47381;SDS011;33128;51.580;5.170;2022-07-29T14:54:17;9.70;;;6.25;;
47381;SDS011;33128;51.580;5.170;2022-07-29T14:56:43;8.32;;;7.05;;
47381;SDS011;33128;51.580;5.170;2022-07-29T14:59:08;6.70;;;6.05;;
47381;SDS011;33128;51.580;5.170;2022-07-29T15:01:34;6.55;;;6.03;;
47381;SDS011;33128;51.580;5.170;2022-07-29T15:03:59;7.93;;;6.45;;
47381;SDS011;33128;51.580;5.170;2022-07-29T15:06:25;7.22;;;6.40;;
47381;SDS011;33128;51.580;5.170;2022-07-29T15:08:51;6.50;;;6.20;;
47381;SDS011;33128;51.580;5.170;2022-07-29T15:11:17;7.30;;;6.60;;
47381;SDS011;33128;51.580;5.170;2022-07-29T15:13:42;6.07;;;5.78;;
47381;SDS011;33128;51.580;5.170;2022-07-29T15:16:08;6.38;;;6.07;;
47381;SDS011;33128;51.580;5.170;2022-07-29T15:18:34;6.32;;;5.93;;
47381;SDS011;33128;51.580;5.170;2022-07-29T15:21:06;7.00;;;6.65;;
47381;SDS011;33128;51.580;5.170;2022-07-29T15:23:32;6.72;;;6.43;;
47381;SDS011;33128;51.580;5.170;2022-07-29T15:26:01;6.88;;;6.57;;
47381;SDS011;33128;51.580;5.170;2022-07-29T15:28:27;6.43;;;6.20;;
47381;SDS011;33128;51.580;5.170;2022-07-29T15:30:52;7.63;;;6.97;;
47381;SDS011;33128;51.580;5.170;2022-07-29T15:33:19;6.95;;;6.57;;
47381;SDS011;33128;51.580;5.170;2022-07-29T15:35:48;7.43;;;6.90;;
47381;SDS011;33128;51.580;5.170;2022-07-29T15:38:13;7.18;;;6.85;;
47381;SDS011;33128;51.580;5.170;2022-07-29T15:40:40;7.07;;;6.55;;
47381;SDS011;33128;51.580;5.170;2022-07-29T15:43:08;7.10;;;6.80;;
47381;SDS011;33128;51.580;5.170;2022-07-29T15:45:35;7.13;;;6.72;;
47381;SDS011;33128;51.580;5.170;2022-07-29T15:48:05;7.07;;;6.78;;
47381;SDS011;33128;51.580;5.170;2022-07-29T15:50:32;9.10;;;6.65;;
47381;SDS011;33128;51.580;5.170;2022-07-29T15:52:58;7.55;;;6.97;;
47381;SDS011;33128;51.580;5.170;2022-07-29T15:55:26;6.72;;;6.43;;
47381;SDS011;33128;51.580;5.170;2022-07-29T15:57:52;7.30;;;6.90;;
47381;SDS011;33128;51.580;5.170;2022-07-29T16:00:18;7.10;;;6.60;;
47381;SDS011;33128;51.580;5.170;2022-07-29T16:02:43;7.22;;;6.85;;
47381;SDS011;33128;51.580;5.170;2022-07-29T16:05:09;7.00;;;6.70;;
47381;SDS011;33128;51.580;5.170;2022-07-29T16:07:35;7.57;;;7.07;;
47381;SDS011;33128;51.580;5.170;2022-07-29T16:10:01;8.07;;;7.55;;
47381;SDS011;33128;51.580;5.170;2022-07-29T16:12:27;8.02;;;7.38;;
47381;SDS011;33128;51.580;5.170;2022-07-29T16:14:53;9.73;;;9.02;;
47381;SDS011;33128;51.580;5.170;2022-07-29T16:17:18;10.07;;;8.77;;
47381;SDS011;33128;51.580;5.170;2022-07-29T16:19:44;8.65;;;8.15;;
47381;SDS011;33128;51.580;5.170;2022-07-29T16:22:10;8.98;;;8.38;;
47381;SDS011;33128;51.580;5.170;2022-07-29T16:24:36;7.75;;;7.35;;
47381;SDS011;33128;51.580;5.170;2022-07-29T16:27:05;9.07;;;8.10;;
47381;SDS011;33128;51.580;5.170;2022-07-29T16:29:34;7.72;;;7.32;;
47381;SDS011;33128;51.580;5.170;2022-07-29T16:32:00;8.85;;;8.18;;
47381;SDS011;33128;51.580;5.170;2022-07-29T16:34:26;9.10;;;8.30;;
47381;SDS011;33128;51.580;5.170;2022-07-29T16:36:52;7.55;;;7.13;;
47381;SDS011;33128;51.580;5.170;2022-07-29T16:39:17;8.20;;;7.70;;
47381;SDS011;33128;51.580;5.170;2022-07-29T16:41:43;7.97;;;7.47;;
47381;SDS011;33128;51.580;5.170;2022-07-29T16:44:08;7.50;;;7.10;;
47381;SDS011;33128;51.580;5.170;2022-07-29T16:46:34;7.82;;;7.43;;
47381;SDS011;33128;51.580;5.170;2022-07-29T16:49:01;7.82;;;7.43;;
47381;SDS011;33128;51.580;5.170;2022-07-29T16:51:28;8.48;;;7.88;;
47381;SDS011;33128;51.580;5.170;2022-07-29T16:53:54;7.50;;;7.20;;
47381;SDS011;33128;51.580;5.170;2022-07-29T16:56:19;7.65;;;7.25;;
47381;SDS011;33128;51.580;5.170;2022-07-29T16:58:45;8.15;;;7.55;;
47381;SDS011;33128;51.580;5.170;2022-07-29T17:01:11;7.57;;;7.18;;
47381;SDS011;33128;51.580;5.170;2022-07-29T17:03:36;7.45;;;7.05;;
47381;SDS011;33128;51.580;5.170;2022-07-29T17:06:25;8.13;;;7.72;;
47381;SDS011;33128;51.580;5.170;2022-07-29T17:08:53;7.63;;;7.32;;
47381;SDS011;33128;51.580;5.170;2022-07-29T17:11:21;8.48;;;7.75;;
47381;SDS011;33128;51.580;5.170;2022-07-29T17:13:47;7.45;;;7.13;;
47381;SDS011;33128;51.580;5.170;2022-07-29T17:16:13;7.45;;;6.97;;
47381;SDS011;33128;51.580;5.170;2022-07-29T17:18:38;7.40;;;7.10;;
47381;SDS011;33128;51.580;5.170;2022-07-29T17:21:04;7.13;;;6.72;;
47381;SDS011;33128;51.580;5.170;2022-07-29T17:23:29;7.32;;;6.93;;
47381;SDS011;33128;51.580;5.170;2022-07-29T17:25:55;6.90;;;6.60;;
47381;SDS011;33128;51.580;5.170;2022-07-29T17:28:21;6.88;;;6.57;;
47381;SDS011;33128;51.580;5.170;2022-07-29T17:30:46;6.97;;;6.57;;
47381;SDS011;33128;51.580;5.170;2022-07-29T17:33:12;7.70;;;7.10;;
47381;SDS011;33128;51.580;5.170;2022-07-29T17:35:37;7.05;;;6.55;;
47381;SDS011;33128;51.580;5.170;2022-07-29T17:38:22;7.22;;;6.85;;
47381;SDS011;33128;51.580;5.170;2022-07-29T17:40:47;6.68;;;6.15;;
47381;SDS011;33128;51.580;5.170;2022-07-29T17:43:13;7.28;;;6.88;;
47381;SDS011;33128;51.580;5.170;2022-07-29T17:45:41;6.43;;;6.03;;
47381;SDS011;33128;51.580;5.170;2022-07-29T17:48:07;7.00;;;6.60;;
47381;SDS011;33128;51.580;5.170;2022-07-29T17:50:33;7.10;;;6.60;;
47381;SDS011;33128;51.580;5.170;2022-07-29T17:53:01;7.57;;;7.07;;
47381;SDS011;33128;51.580;5.170;2022-07-29T17:55:26;7.00;;;6.63;;
47381;SDS011;33128;51.580;5.170;2022-07-29T17:57:52;7.57;;;6.93;;
47381;SDS011;33128;51.580;5.170;2022-07-29T18:00:18;7.65;;;7.00;;
47381;SDS011;33128;51.580;5.170;2022-07-29T18:02:43;7.22;;;6.75;;
47381;SDS011;33128;51.580;5.170;2022-07-29T18:05:09;7.10;;;6.70;;
47381;SDS011;33128;51.580;5.170;2022-07-29T18:07:34;6.97;;;6.57;;
47381;SDS011;33128;51.580;5.170;2022-07-29T18:10:00;6.85;;;6.55;;
47381;SDS011;33128;51.580;5.170;2022-07-29T18:12:26;7.55;;;7.15;;
47381;SDS011;33128;51.580;5.170;2022-07-29T18:14:51;7.78;;;7.25;;
47381;SDS011;33128;51.580;5.170;2022-07-29T18:17:17;7.18;;;6.82;;
47381;SDS011;33128;51.580;5.170;2022-07-29T18:19:42;7.50;;;7.10;;
47381;SDS011;33128;51.580;5.170;2022-07-29T18:22:08;7.88;;;7.15;;
47381;SDS011;33128;51.580;5.170;2022-07-29T18:24:37;7.53;;;6.90;;
47381;SDS011;33128;51.580;5.170;2022-07-29T18:27:03;7.90;;;7.22;;
47381;SDS011;33128;51.580;5.170;2022-07-29T18:29:28;8.40;;;7.65;;
47381;SDS011;33128;51.580;5.170;2022-07-29T18:31:57;7.45;;;7.00;;
47381;SDS011;33128;51.580;5.170;2022-07-29T18:34:26;8.00;;;7.50;;
47381;SDS011;33128;51.580;5.170;2022-07-29T18:36:52;7.55;;;7.15;;
47381;SDS011;33128;51.580;5.170;2022-07-29T18:39:17;7.55;;;7.05;;
47381;SDS011;33128;51.580;5.170;2022-07-29T18:41:43;7.68;;;7.18;;
47381;SDS011;33128;51.580;5.170;2022-07-29T18:44:09;8.43;;;8.02;;
47381;SDS011;33128;51.580;5.170;2022-07-29T18:46:35;9.07;;;8.38;;
47381;SDS011;33128;51.580;5.170;2022-07-29T18:49:03;8.02;;;7.45;;
47381;SDS011;33128;51.580;5.170;2022-07-29T18:51:29;8.18;;;7.68;;
47381;SDS011;33128;51.580;5.170;2022-07-29T18:53:54;7.70;;;7.30;;
47381;SDS011;33128;51.580;5.170;2022-07-29T18:56:20;7.45;;;6.95;;
47381;SDS011;33128;51.580;5.170;2022-07-29T18:58:46;7.40;;;6.82;;
47381;SDS011;33128;51.580;5.170;2022-07-29T19:01:11;6.93;;;6.57;;
47381;SDS011;33128;51.580;5.170;2022-07-29T19:03:38;7.00;;;6.70;;
47381;SDS011;33128;51.580;5.170;2022-07-29T19:06:06;7.20;;;6.53;;
47381;SDS011;33128;51.580;5.170;2022-07-29T19:08:35;7.00;;;6.50;;
47381;SDS011;33128;51.580;5.170;2022-07-29T19:11:00;7.07;;;6.68;;
47381;SDS011;33128;51.580;5.170;2022-07-29T19:13:26;7.38;;;6.82;;
47381;SDS011;33128;51.580;5.170;2022-07-29T19:15:51;7.43;;;6.90;;
47381;SDS011;33128;51.580;5.170;2022-07-29T19:18:17;7.10;;;6.63;;
47381;SDS011;33128;51.580;5.170;2022-07-29T19:20:43;7.32;;;6.72;;
47381;SDS011;33128;51.580;5.170;2022-07-29T19:23:08;7.13;;;6.63;;
47381;SDS011;33128;51.580;5.170;2022-07-29T19:25:34;7.40;;;6.70;;
47381;SDS011;33128;51.580;5.170;2022-07-29T19:28:07;7.18;;;6.75;;
47381;SDS011;33128;51.580;5.170;2022-07-29T19:30:32;7.75;;;7.15;;
47381;SDS011;33128;51.580;5.170;2022-07-29T19:32:58;7.15;;;6.65;;
47381;SDS011;33128;51.580;5.170;2022-07-29T19:35:23;7.85;;;7.28;;
47381;SDS011;33128;51.580;5.170;2022-07-29T19:37:52;7.38;;;6.82;;
47381;SDS011;33128;51.580;5.170;2022-07-29T19:40:19;7.47;;;7.07;;
47381;SDS011;33128;51.580;5.170;2022-07-29T19:42:45;7.90;;;7.35;;
47381;SDS011;33128;51.580;5.170;2022-07-29T19:45:15;7.65;;;7.15;;
47381;SDS011;33128;51.580;5.170;2022-07-29T19:47:41;7.70;;;7.20;;
47381;SDS011;33128;51.580;5.170;2022-07-29T19:50:07;8.52;;;7.72;;
47381;SDS011;33128;51.580;5.170;2022-07-29T19:52:33;7.57;;;6.82;;
47381;SDS011;33128;51.580;5.170;2022-07-29T19:55:02;7.55;;;7.05;;
47381;SDS011;33128;51.580;5.170;2022-07-29T19:57:28;7.93;;;7.45;;
47381;SDS011;33128;51.580;5.170;2022-07-29T19:59:54;7.65;;;7.25;;
47381;SDS011;33128;51.580;5.170;2022-07-29T20:02:20;8.20;;;7.60;;
47381;SDS011;33128;51.580;5.170;2022-07-29T20:04:48;8.20;;;7.70;;
47381;SDS011;33128;51.580;5.170;2022-07-29T20:07:13;7.88;;;7.47;;
47381;SDS011;33128;51.580;5.170;2022-07-29T20:09:41;8.00;;;7.60;;
47381;SDS011;33128;51.580;5.170;2022-07-29T20:12:11;8.23;;;7.82;;
47381;SDS011;33128;51.580;5.170;2022-07-29T20:14:36;8.98;;;8.18;;
47381;SDS011;33128;51.580;5.170;2022-07-29T20:17:02;8.50;;;7.90;;
47381;SDS011;33128;51.580;5.170;2022-07-29T20:19:28;9.52;;;8.82;;
47381;SDS011;33128;51.580;5.170;2022-07-29T20:21:54;8.68;;;8.18;;
47381;SDS011;33128;51.580;5.170;2022-07-29T20:24:20;9.02;;;8.40;;
47381;SDS011;33128;51.580;5.170;2022-07-29T20:26:46;8.60;;;8.18;;
47381;SDS011;33128;51.580;5.170;2022-07-29T20:29:12;8.57;;;8.07;;
47381;SDS011;33128;51.580;5.170;2022-07-29T20:31:38;9.52;;;8.95;;
47381;SDS011;33128;51.580;5.170;2022-07-29T20:34:04;9.65;;;8.70;;
47381;SDS011;33128;51.580;5.170;2022-07-29T20:36:30;8.82;;;8.43;;
47381;SDS011;33128;51.580;5.170;2022-07-29T20:38:56;8.80;;;8.18;;
47381;SDS011;33128;51.580;5.170;2022-07-29T20:41:23;9.02;;;8.43;;
47381;SDS011;33128;51.580;5.170;2022-07-29T20:43:50;8.82;;;8.43;;
47381;SDS011;33128;51.580;5.170;2022-07-29T20:46:16;9.07;;;8.68;;
47381;SDS011;33128;51.580;5.170;2022-07-29T20:48:45;9.18;;;8.68;;
47381;SDS011;33128;51.580;5.170;2022-07-29T20:51:11;9.45;;;8.80;;
47381;SDS011;33128;51.580;5.170;2022-07-29T20:53:37;9.27;;;8.80;;
47381;SDS011;33128;51.580;5.170;2022-07-29T20:56:04;10.25;;;9.48;;
47381;SDS011;33128;51.580;5.170;2022-07-29T20:58:30;8.95;;;8.55;;
47381;SDS011;33128;51.580;5.170;2022-07-29T21:00:58;9.38;;;8.85;;
47381;SDS011;33128;51.580;5.170;2022-07-29T21:03:24;8.98;;;8.57;;
47381;SDS011;33128;51.580;5.170;2022-07-29T21:05:50;9.07;;;8.68;;
47381;SDS011;33128;51.580;5.170;2022-07-29T21:08:16;9.50;;;8.90;;
47381;SDS011;33128;51.580;5.170;2022-07-29T21:10:41;9.30;;;8.80;;
47381;SDS011;33128;51.580;5.170;2022-07-29T21:13:09;9.02;;;8.63;;
47381;SDS011;33128;51.580;5.170;2022-07-29T21:15:35;10.15;;;9.55;;
47381;SDS011;33128;51.580;5.170;2022-07-29T21:18:00;8.98;;;8.57;;
47381;SDS011;33128;51.580;5.170;2022-07-29T21:20:28;8.98;;;8.45;;
47381;SDS011;33128;51.580;5.170;2022-07-29T21:22:55;8.55;;;8.18;;
47381;SDS011;33128;51.580;5.170;2022-07-29T21:25:21;8.75;;;8.35;;
47381;SDS011;33128;51.580;5.170;2022-07-29T21:27:47;8.38;;;7.97;;
47381;SDS011;33128;51.580;5.170;2022-07-29T21:30:31;8.32;;;8.02;;
47381;SDS011;33128;51.580;5.170;2022-07-29T21:33:00;8.65;;;8.02;;
47381;SDS011;33128;51.580;5.170;2022-07-29T21:35:26;8.27;;;7.90;;
47381;SDS011;33128;51.580;5.170;2022-07-29T21:37:52;8.60;;;8.10;;
47381;SDS011;33128;51.580;5.170;2022-07-29T21:40:20;8.48;;;8.18;;
47381;SDS011;33128;51.580;5.170;2022-07-29T21:42:45;8.65;;;8.15;;
47381;SDS011;33128;51.580;5.170;2022-07-29T21:45:13;8.75;;;8.25;;
47381;SDS011;33128;51.580;5.170;2022-07-29T21:47:39;8.85;;;8.00;;
47381;SDS011;33128;51.580;5.170;2022-07-29T21:50:04;8.80;;;8.40;;
47381;SDS011;33128;51.580;5.170;2022-07-29T21:52:39;9.15;;;8.65;;
47381;SDS011;33128;51.580;5.170;2022-07-29T21:55:05;8.40;;;7.97;;
47381;SDS011;33128;51.580;5.170;2022-07-29T21:57:31;8.70;;;8.30;;
47381;SDS011;33128;51.580;5.170;2022-07-29T21:59:56;8.55;;;8.15;;
47381;SDS011;33128;51.580;5.170;2022-07-29T22:02:22;8.88;;;8.48;;
47381;SDS011;33128;51.580;5.170;2022-07-29T22:04:47;9.13;;;8.30;;
47381;SDS011;33128;51.580;5.170;2022-07-29T22:07:14;8.90;;;8.50;;
47381;SDS011;33128;51.580;5.170;2022-07-29T22:09:40;9.40;;;9.00;;
47381;SDS011;33128;51.580;5.170;2022-07-29T22:12:05;9.40;;;8.90;;
47381;SDS011;33128;51.580;5.170;2022-07-29T22:14:34;9.80;;;9.25;;
47381;SDS011;33128;51.580;5.170;2022-07-29T22:16:59;9.60;;;9.20;;
47381;SDS011;33128;51.580;5.170;2022-07-29T22:19:25;9.98;;;9.55;;
47381;SDS011;33128;51.580;5.170;2022-07-29T22:21:50;10.02;;;9.45;;
